createdAt,value
2023-03-26T00:00:23.321Z,42.07
2023-03-26T00:01:23.412Z,42.03
2023-03-26T00:02:23.667Z,41.90
2023-03-26T00:03:23.690Z,42.07
2023-03-26T00:04:23.951Z,42.33
2023-03-26T00:05:23.898Z,42.03
2023-03-26T00:06:23.998Z,41.74
2023-03-26T00:07:24.209Z,41.82
2023-03-26T00:08:24.205Z,41.57
2023-03-26T00:09:24.381Z,42.07
2023-03-26T00:10:24.482Z,41.95
2023-03-26T00:11:24.570Z,41.57
2023-03-26T00:12:24.666Z,42.03
2023-03-26T00:13:24.781Z,42.03
2023-03-26T00:14:25.003Z,42.37
2023-03-26T00:15:25.011Z,42.07
2023-03-26T00:16:25.140Z,42.24
2023-03-26T00:17:25.338Z,42.20
2023-03-26T00:18:25.356Z,42.41
2023-03-26T00:19:25.553Z,42.20
2023-03-26T00:20:25.599Z,42.16
2023-03-26T00:21:25.713Z,42.41
2023-03-26T00:22:25.820Z,42.58
2023-03-26T00:23:25.930Z,42.63
2023-03-26T00:24:26.134Z,42.80
2023-03-26T00:25:26.224Z,42.80
2023-03-26T00:26:26.324Z,42.84
2023-03-26T00:27:26.395Z,42.54
2023-03-26T00:28:26.473Z,43.02
2023-03-26T00:29:26.590Z,42.76
2023-03-26T00:30:26.750Z,42.84
2023-03-26T00:31:26.848Z,43.11
2023-03-26T00:32:26.940Z,43.20
2023-03-26T00:33:27.013Z,42.76
2023-03-26T00:34:27.136Z,42.80
2023-03-26T00:35:27.252Z,42.80
2023-03-26T00:36:27.597Z,42.97
2023-03-26T00:37:27.499Z,43.11
2023-03-26T00:38:28.269Z,43.06
2023-03-26T00:39:27.731Z,42.93
2023-03-26T00:40:27.850Z,42.67
2023-03-26T00:41:28.030Z,42.89
2023-03-26T00:42:28.100Z,43.33
2023-03-26T00:43:28.389Z,43.11
2023-03-26T00:44:28.307Z,42.84
2023-03-26T00:45:28.471Z,42.93
2023-03-26T00:46:28.616Z,42.84
2023-03-26T00:47:28.756Z,42.71
2023-03-26T00:48:38.225Z,42.71
2023-03-26T00:49:29.888Z,43.11
2023-03-26T00:50:28.986Z,43.46
2023-03-26T00:51:29.189Z,43.37
2023-03-26T00:52:29.303Z,43.69
2023-03-26T00:53:29.400Z,43.55
2023-03-26T00:54:29.450Z,43.46
2023-03-26T00:55:29.652Z,43.55
2023-03-26T00:56:29.798Z,43.33
2023-03-26T00:57:35.598Z,43.64
2023-03-26T00:58:30.895Z,43.42
2023-03-26T00:59:29.997Z,43.46
2023-03-26T01:00:30.171Z,42.80
2023-03-26T01:01:30.473Z,42.93
2023-03-26T01:02:30.485Z,43.20
2023-03-26T01:03:30.515Z,42.80
2023-03-26T01:04:31.173Z,43.02
2023-03-26T01:05:30.687Z,42.80
2023-03-26T01:06:30.752Z,43.11
2023-03-26T01:07:30.981Z,43.15
2023-03-26T01:08:30.996Z,42.97
2023-03-26T01:09:31.145Z,43.37
2023-03-26T01:10:31.179Z,42.97
2023-03-26T01:11:31.305Z,42.97
2023-03-26T01:12:31.492Z,43.42
2023-03-26T01:13:31.566Z,43.28
2023-03-26T01:14:31.622Z,43.15
2023-03-26T01:15:31.758Z,43.37
2023-03-26T01:16:31.868Z,43.42
2023-03-26T01:17:32.080Z,43.15
2023-03-26T01:18:32.435Z,43.46
2023-03-26T01:19:32.248Z,42.97
2023-03-26T01:20:32.352Z,42.67
2023-03-26T01:21:32.483Z,42.37
2023-03-26T01:22:32.610Z,42.33
2023-03-26T01:23:32.684Z,42.33
2023-03-26T01:24:32.844Z,42.03
2023-03-26T01:25:32.904Z,41.62
2023-03-26T01:26:33.012Z,41.53
2023-03-26T01:27:33.299Z,41.49
2023-03-26T01:28:33.238Z,41.90
2023-03-26T01:29:33.409Z,41.62
2023-03-26T01:30:33.467Z,41.62
2023-03-26T01:31:33.604Z,41.78
2023-03-26T01:32:33.787Z,41.74
2023-03-26T01:33:34.013Z,41.86
2023-03-26T01:34:33.935Z,41.90
2023-03-26T01:35:34.069Z,41.86
2023-03-26T01:36:34.238Z,41.90
2023-03-26T01:37:34.293Z,41.74
2023-03-26T01:38:34.407Z,41.78
2023-03-26T01:39:34.646Z,41.78
2023-03-26T01:40:34.608Z,41.57
2023-03-26T01:41:34.801Z,41.99
2023-03-26T01:42:34.882Z,41.57
2023-03-26T01:43:34.999Z,41.49
2023-03-26T01:44:35.117Z,41.70
2023-03-26T01:45:35.245Z,41.66
2023-03-26T01:46:35.308Z,41.53
2023-03-26T01:47:35.491Z,41.01
2023-03-26T01:48:35.516Z,41.33
2023-03-26T01:49:37.178Z,41.33
2023-03-26T01:50:35.768Z,41.25
2023-03-26T01:51:35.998Z,41.21
2023-03-26T01:52:35.984Z,41.29
2023-03-26T01:53:36.085Z,41.45
2023-03-26T01:54:36.271Z,41.45
2023-03-26T01:55:36.352Z,41.53
2023-03-26T01:56:36.453Z,41.49
2023-03-26T01:57:36.565Z,41.21
2023-03-26T01:58:37.032Z,41.33
2023-03-26T01:59:36.994Z,41.05
2023-03-26T02:00:36.864Z,41.17
2023-03-26T02:01:37.093Z,41.09
2023-03-26T02:02:37.408Z,41.17
2023-03-26T02:03:37.280Z,40.97
2023-03-26T02:04:37.349Z,40.93
2023-03-26T02:05:37.469Z,40.65
2023-03-26T02:06:37.654Z,40.57
2023-03-26T02:07:37.714Z,40.69
2023-03-26T02:08:37.888Z,40.69
2023-03-26T02:09:37.935Z,40.30
2023-03-26T02:10:38.003Z,40.85
2023-03-26T02:11:38.110Z,40.65
2023-03-26T02:12:38.245Z,40.77
2023-03-26T02:13:38.397Z,40.53
2023-03-26T02:14:38.434Z,40.49
2023-03-26T02:15:38.589Z,40.38
2023-03-26T02:16:38.714Z,40.18
2023-03-26T02:17:38.824Z,39.99
2023-03-26T02:18:39.046Z,40.18
2023-03-26T02:19:39.074Z,40.26
2023-03-26T02:20:39.148Z,39.84
2023-03-26T02:21:39.241Z,39.69
2023-03-26T02:22:39.378Z,39.43
2023-03-26T02:23:39.461Z,39.77
2023-03-26T02:24:39.591Z,39.36
2023-03-26T02:25:42.256Z,39.54
2023-03-26T02:26:39.832Z,39.47
2023-03-26T02:27:40.058Z,39.36
2023-03-26T02:28:40.074Z,39.03
2023-03-26T02:29:40.209Z,38.81
2023-03-26T02:30:40.404Z,38.63
2023-03-26T02:31:40.518Z,38.53
2023-03-26T02:32:40.593Z,38.63
2023-03-26T02:33:40.697Z,39.06
2023-03-26T02:34:40.814Z,38.92
2023-03-26T02:35:40.964Z,38.35
2023-03-26T02:36:41.085Z,38.35
2023-03-26T02:37:41.115Z,38.32
2023-03-26T02:38:41.253Z,38.35
2023-03-26T02:39:41.310Z,38.25
2023-03-26T02:40:41.442Z,38.39
2023-03-26T02:41:41.539Z,38.39
2023-03-26T02:42:41.713Z,37.94
2023-03-26T02:43:41.783Z,38.21
2023-03-26T02:44:41.978Z,38.49
2023-03-26T02:45:42.080Z,38.81
2023-03-26T02:46:42.193Z,38.78
2023-03-26T02:47:42.698Z,38.71
2023-03-26T02:48:42.371Z,38.42
2023-03-26T02:49:42.545Z,38.11
2023-03-26T02:50:42.643Z,37.73
2023-03-26T02:51:42.714Z,37.56
2023-03-26T02:52:42.868Z,37.77
2023-03-26T02:53:42.981Z,37.70
2023-03-26T02:54:43.043Z,37.30
2023-03-26T02:55:43.163Z,36.91
2023-03-26T02:56:43.388Z,36.62
2023-03-26T02:57:43.375Z,36.40
2023-03-26T02:58:43.500Z,36.21
2023-03-26T02:59:43.607Z,35.30
2023-03-26T03:00:43.719Z,34.92
2023-03-26T03:01:43.855Z,34.83
2023-03-26T03:02:44.016Z,34.80
2023-03-26T03:03:44.084Z,34.07
2023-03-26T03:04:44.199Z,34.23
2023-03-26T03:05:44.362Z,34.21
2023-03-26T03:06:44.442Z,34.51
2023-03-26T03:07:44.503Z,34.12
2023-03-26T03:08:44.626Z,34.63
2023-03-26T03:09:44.777Z,34.77
2023-03-26T03:10:44.840Z,34.69
2023-03-26T03:11:44.949Z,34.18
2023-03-26T03:12:45.109Z,33.98
2023-03-26T03:13:45.184Z,33.21
2023-03-26T03:14:45.350Z,32.51
2023-03-26T03:15:45.399Z,32.12
2023-03-26T03:16:45.572Z,31.30
2023-03-26T03:17:45.651Z,31.59
2023-03-26T03:18:45.738Z,31.78
2023-03-26T03:19:45.850Z,31.21
2023-03-26T03:20:45.965Z,31.12
2023-03-26T03:21:46.276Z,31.10
2023-03-26T03:22:46.240Z,31.10
2023-03-26T03:23:46.335Z,30.49
2023-03-26T03:24:46.422Z,30.73
2023-03-26T03:25:46.588Z,30.75
2023-03-26T03:26:47.612Z,30.35
2023-03-26T03:27:46.860Z,30.51
2023-03-26T03:28:46.940Z,30.53
2023-03-26T03:29:47.111Z,30.55
2023-03-26T03:30:47.323Z,30.49
2023-03-26T03:31:48.304Z,30.35
2023-03-26T03:32:47.468Z,30.31
2023-03-26T03:33:47.551Z,30.49
2023-03-26T03:34:47.693Z,30.64
2023-03-26T03:35:47.839Z,30.05
2023-03-26T03:36:47.929Z,29.63
2023-03-26T03:37:48.043Z,30.07
2023-03-26T03:38:48.150Z,29.88
2023-03-26T03:39:48.357Z,30.09
2023-03-26T03:40:48.446Z,30.12
2023-03-26T03:41:48.457Z,30.18
2023-03-26T03:42:48.597Z,30.14
2023-03-26T03:43:48.780Z,30.23
2023-03-26T03:44:48.857Z,30.29
2023-03-26T03:45:49.006Z,30.09
2023-03-26T03:46:49.087Z,30.05
2023-03-26T03:47:49.769Z,30.03
2023-03-26T03:48:49.338Z,29.86
2023-03-26T03:49:49.416Z,29.84
2023-03-26T03:50:49.648Z,29.63
2023-03-26T03:51:51.418Z,29.30
2023-03-26T03:52:49.768Z,29.71
2023-03-26T03:53:49.859Z,29.55
2023-03-26T03:54:49.979Z,29.84
2023-03-26T03:55:50.111Z,29.77
2023-03-26T03:56:50.234Z,29.50
2023-03-26T03:57:50.345Z,29.50
2023-03-26T03:58:50.442Z,29.55
2023-03-26T03:59:50.553Z,29.75
2023-03-26T04:00:50.705Z,29.67
2023-03-26T04:01:50.900Z,29.90
2023-03-26T04:02:50.965Z,29.92
2023-03-26T04:03:51.150Z,29.84
2023-03-26T04:04:51.190Z,29.88
2023-03-26T04:05:51.283Z,29.75
2023-03-26T04:06:51.421Z,29.75
2023-03-26T04:07:51.628Z,29.80
2023-03-26T04:08:51.681Z,29.71
2023-03-26T04:09:51.757Z,29.57
2023-03-26T04:10:51.877Z,29.42
2023-03-26T04:11:52.014Z,29.30
2023-03-26T04:12:52.132Z,29.20
2023-03-26T04:13:52.272Z,29.06
2023-03-26T04:14:52.354Z,29.34
2023-03-26T04:15:52.648Z,29.40
2023-03-26T04:16:52.605Z,29.38
2023-03-26T04:17:52.785Z,29.63
2023-03-26T04:18:52.794Z,29.86
2023-03-26T04:19:52.932Z,29.90
2023-03-26T04:20:53.013Z,30.14
2023-03-26T04:21:53.132Z,29.84
2023-03-26T04:22:53.257Z,29.82
2023-03-26T04:23:53.390Z,29.75
2023-03-26T04:24:53.494Z,29.65
2023-03-26T04:25:54.058Z,29.50
2023-03-26T04:26:53.769Z,29.67
2023-03-26T04:27:53.927Z,29.84
2023-03-26T04:28:53.936Z,29.92
2023-03-26T04:29:54.085Z,29.86
2023-03-26T04:30:54.177Z,29.73
2023-03-26T04:31:54.397Z,29.61
2023-03-26T04:32:54.507Z,29.65
2023-03-26T04:33:54.569Z,29.48
2023-03-26T04:34:54.708Z,29.36
2023-03-26T04:35:55.001Z,29.75
2023-03-26T04:36:55.076Z,29.67
2023-03-26T04:37:55.052Z,28.94
2023-03-26T04:38:55.209Z,28.05
2023-03-26T04:39:55.307Z,27.07
2023-03-26T04:40:55.376Z,26.43
2023-03-26T04:41:55.534Z,25.78
2023-03-26T04:42:55.686Z,25.48
2023-03-26T04:43:55.680Z,25.22
2023-03-26T04:44:55.791Z,25.22
2023-03-26T04:45:56.119Z,25.16
2023-03-26T04:46:56.071Z,25.34
2023-03-26T04:47:56.284Z,25.21
2023-03-26T04:48:56.246Z,24.94
2023-03-26T04:49:56.362Z,24.90
2023-03-26T04:50:56.473Z,24.81
2023-03-26T04:51:56.600Z,24.82
2023-03-26T04:52:56.727Z,24.70
2023-03-26T04:53:56.861Z,24.72
2023-03-26T04:54:56.951Z,24.81
2023-03-26T04:55:57.223Z,24.73
2023-03-26T04:56:57.203Z,24.66
2023-03-26T04:57:57.308Z,24.72
2023-03-26T04:58:57.417Z,24.49
2023-03-26T04:59:57.533Z,24.66
2023-03-26T05:00:57.742Z,24.59
2023-03-26T05:01:57.734Z,24.62
2023-03-26T05:02:57.947Z,24.60
2023-03-26T05:03:58.027Z,24.65
2023-03-26T05:04:58.081Z,24.72
2023-03-26T05:05:58.201Z,24.78
2023-03-26T05:06:58.368Z,24.82
2023-03-26T05:07:58.521Z,24.90
2023-03-26T05:08:58.537Z,24.70
2023-03-26T05:09:58.617Z,24.95
2023-03-26T05:10:58.750Z,25.06
2023-03-26T05:11:58.964Z,25.03
2023-03-26T05:12:59.049Z,25.18
2023-03-26T05:13:59.216Z,25.13
2023-03-26T05:14:59.184Z,25.01
2023-03-26T05:15:59.300Z,25.30
2023-03-26T05:16:59.388Z,25.13
2023-03-26T05:17:59.570Z,25.12
2023-03-26T05:18:59.675Z,25.16
2023-03-26T05:19:59.758Z,25.07
2023-03-26T05:20:59.866Z,25.09
2023-03-26T05:21:59.979Z,25.03
2023-03-26T05:23:00.103Z,25.04
2023-03-26T05:24:00.227Z,25.09
2023-03-26T05:25:00.358Z,25.06
2023-03-26T05:26:00.458Z,25.04
2023-03-26T05:27:00.612Z,25.01
2023-03-26T05:28:00.785Z,24.94
2023-03-26T05:29:00.818Z,25.09
2023-03-26T05:30:00.966Z,25.10
2023-03-26T05:31:01.086Z,25.10
2023-03-26T05:32:01.149Z,25.09
2023-03-26T05:33:01.303Z,25.19
2023-03-26T05:34:01.523Z,25.09
2023-03-26T05:35:01.543Z,25.24
2023-03-26T05:36:01.670Z,25.21
2023-03-26T05:37:01.778Z,25.30
2023-03-26T05:38:01.885Z,25.12
2023-03-26T05:39:02.003Z,25.12
2023-03-26T05:40:02.129Z,25.24
2023-03-26T05:41:02.252Z,25.15
2023-03-26T05:42:02.342Z,25.16
2023-03-26T05:43:02.473Z,25.09
2023-03-26T05:44:02.616Z,25.18
2023-03-26T05:45:02.669Z,25.27
2023-03-26T05:46:02.849Z,25.04
2023-03-26T05:47:02.889Z,25.07
2023-03-26T05:48:03.119Z,25.09
2023-03-26T05:49:03.183Z,24.98
2023-03-26T05:50:03.242Z,25.28
2023-03-26T05:51:03.403Z,25.07
2023-03-26T05:52:03.481Z,25.10
2023-03-26T05:53:03.560Z,25.13
2023-03-26T05:54:03.717Z,25.19
2023-03-26T05:55:03.785Z,25.30
2023-03-26T05:56:03.917Z,25.28
2023-03-26T05:57:04.129Z,25.25
2023-03-26T05:58:04.158Z,25.24
2023-03-26T05:59:04.315Z,25.39
2023-03-26T06:00:04.447Z,25.25
2023-03-26T06:01:04.501Z,25.22
2023-03-26T06:02:04.611Z,25.19
2023-03-26T06:03:04.921Z,25.34
2023-03-26T06:04:04.954Z,25.33
2023-03-26T06:05:04.991Z,25.13
2023-03-26T06:06:05.086Z,25.36
2023-03-26T06:07:05.205Z,25.25
2023-03-26T06:08:05.427Z,25.21
2023-03-26T06:09:05.463Z,25.22
2023-03-26T06:10:05.703Z,25.22
2023-03-26T06:11:05.681Z,25.13
2023-03-26T06:12:05.879Z,25.22
2023-03-26T06:13:05.950Z,25.31
2023-03-26T06:14:06.048Z,25.36
2023-03-26T06:15:06.271Z,25.25
2023-03-26T06:16:06.387Z,25.21
2023-03-26T06:17:06.429Z,25.22
2023-03-26T06:18:07.552Z,25.24
2023-03-26T06:19:07.715Z,25.16
2023-03-26T06:20:08.830Z,25.16
2023-03-26T06:21:06.915Z,25.27
2023-03-26T06:22:07.019Z,25.22
2023-03-26T06:23:07.224Z,25.30
2023-03-26T06:24:07.243Z,25.19
2023-03-26T06:25:07.422Z,25.15
2023-03-26T06:26:07.489Z,25.24
2023-03-26T06:27:07.628Z,25.28
2023-03-26T06:28:07.763Z,25.19
2023-03-26T06:29:07.805Z,25.22
2023-03-26T06:30:07.962Z,25.47
2023-03-26T06:31:08.081Z,25.45
2023-03-26T06:32:19.139Z,25.33
2023-03-26T06:33:09.242Z,25.34
2023-03-26T06:34:08.345Z,25.44
2023-03-26T06:35:08.441Z,25.34
2023-03-26T06:36:08.594Z,25.36
2023-03-26T06:37:08.735Z,25.34
2023-03-26T06:38:08.794Z,25.39
2023-03-26T06:39:08.940Z,25.27
2023-03-26T06:40:09.030Z,25.27
2023-03-26T06:41:09.164Z,25.38
2023-03-26T06:42:09.253Z,25.31
2023-03-26T06:43:11.124Z,25.25
2023-03-26T06:44:09.526Z,25.13
2023-03-26T06:45:09.653Z,25.25
2023-03-26T06:46:09.718Z,25.22
2023-03-26T06:47:09.937Z,25.15
2023-03-26T06:48:10.012Z,25.22
2023-03-26T06:49:10.026Z,25.09
2023-03-26T06:50:10.172Z,25.19
2023-03-26T06:51:10.271Z,25.31
2023-03-26T06:52:10.370Z,25.27
2023-03-26T06:53:10.502Z,25.34
2023-03-26T06:54:10.609Z,25.33
2023-03-26T06:55:10.809Z,25.38
2023-03-26T06:56:10.853Z,25.36
2023-03-26T06:57:11.020Z,25.47
2023-03-26T06:58:11.113Z,25.55
2023-03-26T06:59:11.222Z,25.50
2023-03-26T07:00:11.361Z,25.64
2023-03-26T07:01:11.456Z,25.64
2023-03-26T07:02:11.546Z,25.70
2023-03-26T07:03:11.704Z,25.78
2023-03-26T07:04:11.801Z,25.97
2023-03-26T07:05:11.912Z,25.70
2023-03-26T07:06:12.021Z,25.78
2023-03-26T07:07:12.113Z,25.64
2023-03-26T07:08:12.327Z,25.78
2023-03-26T07:09:12.449Z,25.78
2023-03-26T07:10:12.448Z,25.80
2023-03-26T07:11:12.583Z,25.76
2023-03-26T07:12:12.651Z,25.65
2023-03-26T07:13:12.766Z,25.56
2023-03-26T07:14:12.894Z,25.61
2023-03-26T07:15:13.000Z,25.78
2023-03-26T07:16:13.165Z,25.64
2023-03-26T07:17:13.216Z,25.75
2023-03-26T07:18:13.379Z,25.72
2023-03-26T07:19:13.447Z,25.70
2023-03-26T07:20:13.568Z,25.59
2023-03-26T07:21:13.717Z,25.75
2023-03-26T07:22:13.866Z,25.53
2023-03-26T07:23:13.862Z,25.73
2023-03-26T07:24:14.041Z,25.91
2023-03-26T07:25:14.145Z,25.78
2023-03-26T07:26:14.226Z,25.94
2023-03-26T07:27:14.433Z,26.10
2023-03-26T07:28:15.095Z,25.99
2023-03-26T07:29:14.578Z,26.07
2023-03-26T07:30:14.652Z,26.07
2023-03-26T07:31:14.811Z,26.05
2023-03-26T07:33:15.027Z,26.05
2023-03-26T07:34:15.123Z,26.02
2023-03-26T07:35:15.257Z,26.18
2023-03-26T07:36:15.328Z,26.23
2023-03-26T07:37:15.405Z,26.38
2023-03-26T07:38:15.505Z,26.38
2023-03-26T07:39:15.669Z,26.41
2023-03-26T07:40:16.040Z,26.61
2023-03-26T07:41:15.890Z,26.80
2023-03-26T07:42:15.966Z,26.68
2023-03-26T07:43:16.067Z,26.70
2023-03-26T07:44:16.252Z,27.00
2023-03-26T07:45:16.311Z,26.93
2023-03-26T07:46:16.476Z,27.02
2023-03-26T07:47:16.520Z,26.97
2023-03-26T07:48:16.699Z,27.18
2023-03-26T07:49:16.753Z,27.34
2023-03-26T07:50:18.298Z,27.07
2023-03-26T07:51:17.032Z,27.18
2023-03-26T07:52:17.152Z,27.23
2023-03-26T07:53:17.194Z,27.02
2023-03-26T07:54:17.293Z,27.62
2023-03-26T07:55:17.404Z,27.41
2023-03-26T07:56:17.578Z,27.34
2023-03-26T07:57:17.705Z,27.11
2023-03-26T07:58:17.746Z,27.35
2023-03-26T07:59:17.858Z,27.84
2023-03-26T08:00:18.001Z,27.55
2023-03-26T08:01:18.080Z,27.72
2023-03-26T08:02:18.204Z,27.16
2023-03-26T08:03:18.430Z,27.59
2023-03-26T08:04:24.337Z,27.52
2023-03-26T08:05:19.831Z,27.94
2023-03-26T08:06:18.639Z,27.94
2023-03-26T08:07:18.844Z,27.68
2023-03-26T08:08:18.954Z,28.22
2023-03-26T08:09:19.025Z,27.75
2023-03-26T08:10:19.162Z,28.01
2023-03-26T08:11:19.250Z,27.72
2023-03-26T08:12:19.385Z,27.90
2023-03-26T08:13:19.516Z,27.64
2023-03-26T08:14:19.596Z,28.33
2023-03-26T08:15:19.709Z,28.16
2023-03-26T08:16:19.964Z,27.68
2023-03-26T08:17:19.925Z,28.09
2023-03-26T08:18:20.096Z,28.56
2023-03-26T08:19:20.159Z,28.24
2023-03-26T08:20:20.277Z,28.07
2023-03-26T08:21:20.409Z,28.09
2023-03-26T08:22:20.514Z,28.62
2023-03-26T08:23:20.666Z,27.92
2023-03-26T08:24:20.748Z,28.43
2023-03-26T08:25:20.871Z,28.49
2023-03-26T08:26:20.992Z,28.05
2023-03-26T08:27:21.125Z,28.24
2023-03-26T08:28:21.251Z,27.92
2023-03-26T08:29:21.350Z,28.45
2023-03-26T08:30:21.403Z,28.03
2023-03-26T08:31:21.554Z,27.83
2023-03-26T08:32:21.666Z,28.20
2023-03-26T08:33:21.832Z,28.37
2023-03-26T08:34:21.872Z,27.66
2023-03-26T08:35:22.012Z,27.92
2023-03-26T08:36:22.142Z,28.29
2023-03-26T08:37:22.197Z,28.49
2023-03-26T08:38:22.368Z,28.52
2023-03-26T08:39:22.433Z,28.01
2023-03-26T08:40:22.517Z,28.16
2023-03-26T08:41:22.636Z,28.18
2023-03-26T08:42:22.793Z,27.95
2023-03-26T08:43:22.883Z,27.79
2023-03-26T08:44:22.996Z,27.81
2023-03-26T08:45:23.106Z,28.05
2023-03-26T08:46:23.274Z,27.83
2023-03-26T08:47:23.411Z,27.66
2023-03-26T08:48:23.498Z,27.57
2023-03-26T08:49:25.277Z,27.64
2023-03-26T08:50:23.671Z,27.59
2023-03-26T08:51:23.770Z,27.75
2023-03-26T08:52:23.879Z,27.39
2023-03-26T08:53:23.991Z,27.61
2023-03-26T08:54:24.128Z,27.75
2023-03-26T08:55:24.227Z,27.44
2023-03-26T08:56:24.325Z,27.48
2023-03-26T08:57:24.488Z,27.53
2023-03-26T08:58:24.544Z,27.41
2023-03-26T08:59:24.653Z,27.30
2023-03-26T09:00:24.770Z,27.23
2023-03-26T09:01:24.998Z,27.16
2023-03-26T09:02:25.084Z,27.18
2023-03-26T09:03:25.160Z,27.23
2023-03-26T09:04:25.250Z,27.18
2023-03-26T09:05:25.349Z,26.99
2023-03-26T09:06:25.537Z,27.09
2023-03-26T09:07:25.629Z,26.87
2023-03-26T09:08:25.690Z,26.82
2023-03-26T09:09:25.828Z,26.95
2023-03-26T09:10:25.939Z,26.93
2023-03-26T09:11:26.074Z,26.83
2023-03-26T09:12:26.172Z,26.93
2023-03-26T09:13:26.265Z,26.63
2023-03-26T09:14:26.478Z,26.59
2023-03-26T09:15:26.523Z,26.63
2023-03-26T09:16:26.726Z,26.61
2023-03-26T09:17:26.718Z,26.48
2023-03-26T09:18:26.819Z,26.33
2023-03-26T09:19:26.936Z,26.30
2023-03-26T09:20:27.181Z,26.23
2023-03-26T09:21:27.193Z,26.28
2023-03-26T09:22:27.255Z,26.38
2023-03-26T09:23:27.372Z,26.28
2023-03-26T09:24:27.470Z,26.34
2023-03-26T09:25:27.620Z,26.26
2023-03-26T09:26:27.750Z,26.15
2023-03-26T09:27:27.808Z,26.00
2023-03-26T09:28:27.975Z,26.15
2023-03-26T09:29:28.041Z,26.02
2023-03-26T09:30:28.147Z,25.94
2023-03-26T09:31:28.372Z,25.86
2023-03-26T09:32:28.489Z,25.78
2023-03-26T09:33:28.489Z,25.92
2023-03-26T09:34:28.591Z,25.67
2023-03-26T09:35:28.813Z,25.59
2023-03-26T09:36:28.993Z,25.47
2023-03-26T09:37:28.938Z,25.48
2023-03-26T09:38:29.066Z,25.68
2023-03-26T09:39:29.147Z,25.78
2023-03-26T09:40:29.286Z,25.75
2023-03-26T09:41:29.380Z,25.86
2023-03-26T09:42:29.517Z,25.81
2023-03-26T09:43:29.669Z,25.80
2023-03-26T09:44:29.733Z,25.55
2023-03-26T09:45:29.881Z,25.76
2023-03-26T09:46:29.951Z,25.64
2023-03-26T09:47:30.073Z,25.62
2023-03-26T09:48:30.299Z,25.64
2023-03-26T09:49:30.305Z,25.56
2023-03-26T09:50:30.412Z,25.58
2023-03-26T09:51:30.510Z,25.42
2023-03-26T09:52:30.658Z,25.34
2023-03-26T09:53:30.778Z,25.22
2023-03-26T09:54:30.849Z,25.13
2023-03-26T09:55:30.993Z,25.16
2023-03-26T09:56:31.110Z,25.04
2023-03-26T09:57:31.225Z,25.10
2023-03-26T09:58:31.331Z,25.09
2023-03-26T09:59:31.434Z,25.13
2023-03-26T10:00:31.543Z,25.09
2023-03-26T10:01:31.722Z,25.03
2023-03-26T10:02:46.429Z,25.01
2023-03-26T10:03:32.908Z,25.06
2023-03-26T10:04:32.044Z,25.01
2023-03-26T10:05:32.092Z,25.01
2023-03-26T10:06:32.246Z,25.24
2023-03-26T10:07:32.348Z,25.04
2023-03-26T10:08:32.655Z,25.09
2023-03-26T10:09:32.575Z,25.16
2023-03-26T10:10:32.676Z,25.16
2023-03-26T10:11:32.796Z,25.24
2023-03-26T10:12:32.896Z,25.21
2023-03-26T10:13:33.037Z,25.21
2023-03-26T10:14:33.183Z,25.16
2023-03-26T10:15:33.255Z,25.15
2023-03-26T10:16:33.389Z,24.95
2023-03-26T10:17:33.562Z,24.90
2023-03-26T10:18:33.586Z,24.90
2023-03-26T10:19:33.732Z,24.78
2023-03-26T10:20:33.804Z,24.68
2023-03-26T10:21:33.915Z,24.73
2023-03-26T10:22:34.084Z,24.50
2023-03-26T10:23:34.201Z,24.55
2023-03-26T10:24:34.348Z,24.58
2023-03-26T10:25:34.433Z,24.46
2023-03-26T10:26:34.541Z,24.46
2023-03-26T10:27:34.695Z,24.69
2023-03-26T10:28:34.834Z,24.68
2023-03-26T10:29:34.875Z,24.62
2023-03-26T10:30:35.163Z,24.46
2023-03-26T10:31:35.179Z,24.56
2023-03-26T10:32:35.284Z,24.62
2023-03-26T10:33:35.374Z,24.91
2023-03-26T10:34:35.529Z,24.91
2023-03-26T10:35:35.667Z,24.88
2023-03-26T10:36:35.757Z,24.90
2023-03-26T10:37:35.842Z,25.22
2023-03-26T10:38:35.940Z,25.38
2023-03-26T10:39:38.434Z,25.15
2023-03-26T10:40:36.261Z,25.27
2023-03-26T10:41:36.319Z,24.88
2023-03-26T10:42:36.375Z,24.92
2023-03-26T10:43:36.480Z,24.49
2023-03-26T10:44:36.632Z,24.79
2023-03-26T10:45:36.736Z,24.36
2023-03-26T10:46:36.909Z,24.12
2023-03-26T10:47:36.948Z,24.06
2023-03-26T10:48:37.132Z,24.01
2023-03-26T10:49:37.141Z,23.92
2023-03-26T10:50:37.328Z,23.80
2023-03-26T10:51:37.378Z,23.77
2023-03-26T10:52:37.485Z,23.80
2023-03-26T10:53:37.581Z,23.76
2023-03-26T10:54:37.714Z,23.76
2023-03-26T10:55:37.834Z,23.35
2023-03-26T10:56:38.025Z,23.09
2023-03-26T10:57:38.045Z,23.45
2023-03-26T10:58:48.489Z,23.51
2023-03-26T10:59:39.294Z,23.48
2023-03-26T11:00:38.464Z,23.78
2023-03-26T11:01:38.664Z,23.78
2023-03-26T11:02:38.611Z,24.59
2023-03-26T11:03:38.762Z,24.85
2023-03-26T11:04:38.913Z,24.31
2023-03-26T11:05:44.112Z,23.96
2023-03-26T11:06:39.097Z,23.78
2023-03-26T11:07:39.240Z,23.51
2023-03-26T11:08:39.332Z,23.32
2023-03-26T11:09:39.451Z,23.38
2023-03-26T11:10:39.568Z,23.38
2023-03-26T11:11:39.679Z,23.56
2023-03-26T11:12:39.779Z,23.77
2023-03-26T11:13:39.897Z,24.26
2023-03-26T11:14:40.011Z,24.90
2023-03-26T11:15:40.202Z,24.68
2023-03-26T11:16:40.249Z,24.45
2023-03-26T11:17:41.544Z,24.21
2023-03-26T11:18:40.451Z,23.97
2023-03-26T11:19:40.557Z,23.97
2023-03-26T11:20:40.681Z,23.89
2023-03-26T11:21:40.892Z,23.91
2023-03-26T11:22:40.931Z,24.56
2023-03-26T11:23:41.010Z,24.08
2023-03-26T11:24:41.103Z,24.15
2023-03-26T11:25:41.290Z,24.36
2023-03-26T11:26:41.356Z,24.07
2023-03-26T11:27:41.563Z,23.92
2023-03-26T11:28:41.700Z,24.33
2023-03-26T11:29:42.691Z,23.89
2023-03-26T11:30:41.859Z,23.27
2023-03-26T11:31:41.943Z,23.17
2023-03-26T11:32:42.191Z,23.12
2023-03-26T11:33:45.670Z,22.77
2023-03-26T11:34:42.273Z,22.74
2023-03-26T11:35:42.507Z,22.79
2023-03-26T11:36:42.507Z,22.69
2023-03-26T11:37:42.610Z,22.08
2023-03-26T11:38:42.738Z,21.91
2023-03-26T11:39:42.925Z,22.19
2023-03-26T11:40:43.056Z,23.56
2023-03-26T11:41:43.130Z,25.16
2023-03-26T11:42:43.186Z,27.28
2023-03-26T11:43:43.362Z,26.93
2023-03-26T11:44:43.419Z,25.21
2023-03-26T11:45:43.606Z,24.29
2023-03-26T11:46:43.722Z,24.32
2023-03-26T11:47:43.866Z,23.89
2023-03-26T11:48:44.091Z,24.82
2023-03-26T11:49:44.056Z,26.20
2023-03-26T11:50:44.166Z,25.80
2023-03-26T11:51:44.220Z,25.01
2023-03-26T11:52:45.910Z,24.26
2023-03-26T11:53:44.521Z,24.10
2023-03-26T11:54:44.577Z,23.32
2023-03-26T11:55:44.667Z,24.26
2023-03-26T11:57:03.973Z,23.78
2023-03-26T11:57:45.896Z,24.33
2023-03-26T11:58:45.088Z,25.28
2023-03-26T11:59:55.741Z,25.53
2023-03-26T12:00:46.250Z,25.86
2023-03-26T12:01:45.398Z,26.33
2023-03-26T12:02:45.491Z,26.34
2023-03-26T12:03:45.667Z,26.83
2023-03-26T12:04:45.748Z,26.15
2023-03-26T12:05:45.787Z,26.21
2023-03-26T12:06:45.925Z,25.89
2023-03-26T12:07:46.015Z,26.20
2023-03-26T12:08:46.168Z,25.86
2023-03-26T12:09:46.245Z,26.17
2023-03-26T12:10:46.379Z,26.12
2023-03-26T12:11:46.483Z,26.53
2023-03-26T12:12:46.590Z,26.56
2023-03-26T12:13:46.776Z,25.30
2023-03-26T12:14:46.872Z,24.60
2023-03-26T12:15:46.960Z,24.85
2023-03-26T12:16:47.097Z,24.98
2023-03-26T12:17:47.172Z,25.18
2023-03-26T12:18:47.328Z,25.38
2023-03-26T12:19:47.429Z,24.92
2023-03-26T12:20:47.538Z,24.36
2023-03-26T12:21:47.599Z,24.55
2023-03-26T12:22:47.947Z,24.60
2023-03-26T12:23:47.814Z,24.85
2023-03-26T12:24:47.946Z,25.19
2023-03-26T12:25:48.114Z,25.13
2023-03-26T12:26:48.154Z,24.88
2023-03-26T12:27:48.312Z,24.79
2023-03-26T12:28:48.436Z,24.56
2023-03-26T12:29:48.668Z,23.43
2023-03-26T12:30:48.615Z,22.74
2023-03-26T12:31:48.754Z,22.33
2023-03-26T12:32:48.847Z,22.45
2023-03-26T12:33:48.984Z,22.38
2023-03-26T12:34:49.045Z,22.19
2023-03-26T12:35:49.176Z,21.80
2023-03-26T12:36:49.270Z,22.62
2023-03-26T12:37:49.385Z,23.12
2023-03-26T12:39:16.682Z,24.14
2023-03-26T12:40:08.888Z,24.25
2023-03-26T12:40:50.730Z,23.70
2023-03-26T12:43:40.319Z,23.89
2023-03-26T12:44:47.212Z,23.74
2023-03-26T12:44:54.978Z,23.72
2023-03-26T12:44:59.178Z,23.56
2023-03-26T12:46:58.908Z,23.86
2023-03-26T12:47:58.983Z,24.33
2023-03-26T12:47:59.419Z,24.12
2023-03-26T12:48:51.716Z,24.48
2023-03-26T12:49:50.771Z,24.38
2023-03-26T12:50:50.832Z,24.21
2023-03-26T12:51:50.970Z,24.85
2023-03-26T12:52:51.085Z,26.02
2023-03-26T12:53:51.217Z,27.20
2023-03-26T12:54:51.306Z,27.37